sensor_id;sensor_type;location;lat;lon;timestamp;P1;durP1;ratioP1;P2;durP2;ratioP2
23060;SDS011;11698;47.690;9.132;2022-08-20T00:00:44;13.07;;;11.43;;
23060;SDS011;11698;47.690;9.132;2022-08-20T00:03:13;14.70;;;11.33;;
23060;SDS011;11698;47.690;9.132;2022-08-20T00:05:43;12.95;;;10.82;;
23060;SDS011;11698;47.690;9.132;2022-08-20T00:08:09;13.60;;;11.25;;
23060;SDS011;11698;47.690;9.132;2022-08-20T00:10:37;13.35;;;11.25;;
23060;SDS011;11698;47.690;9.132;2022-08-20T00:13:04;13.95;;;11.77;;
23060;SDS011;11698;47.690;9.132;2022-08-20T00:15:32;14.25;;;11.85;;
23060;SDS011;11698;47.690;9.132;2022-08-20T00:17:58;13.98;;;11.85;;
23060;SDS011;11698;47.690;9.132;2022-08-20T00:20:26;14.23;;;11.82;;
23060;SDS011;11698;47.690;9.132;2022-08-20T00:22:53;14.15;;;12.30;;
23060;SDS011;11698;47.690;9.132;2022-08-20T00:25:19;14.52;;;11.65;;
23060;SDS011;11698;47.690;9.132;2022-08-20T00:27:45;13.98;;;12.15;;
23060;SDS011;11698;47.690;9.132;2022-08-20T00:30:12;14.05;;;11.35;;
23060;SDS011;11698;47.690;9.132;2022-08-20T00:32:45;14.45;;;12.35;;
23060;SDS011;11698;47.690;9.132;2022-08-20T00:35:13;14.95;;;12.30;;
23060;SDS011;11698;47.690;9.132;2022-08-20T00:37:39;14.63;;;12.70;;
23060;SDS011;11698;47.690;9.132;2022-08-20T00:40:05;14.90;;;12.57;;
23060;SDS011;11698;47.690;9.132;2022-08-20T00:42:38;16.40;;;12.80;;
23060;SDS011;11698;47.690;9.132;2022-08-20T00:45:04;15.67;;;13.00;;
23060;SDS011;11698;47.690;9.132;2022-08-20T00:47:30;14.88;;;12.80;;
23060;SDS011;11698;47.690;9.132;2022-08-20T00:49:56;16.88;;;13.77;;
23060;SDS011;11698;47.690;9.132;2022-08-20T00:52:22;15.27;;;12.60;;
23060;SDS011;11698;47.690;9.132;2022-08-20T00:54:49;15.30;;;13.55;;
23060;SDS011;11698;47.690;9.132;2022-08-20T00:57:20;14.97;;;12.17;;
23060;SDS011;11698;47.690;9.132;2022-08-20T00:59:46;15.50;;;12.90;;
23060;SDS011;11698;47.690;9.132;2022-08-20T01:02:15;14.73;;;12.20;;
23060;SDS011;11698;47.690;9.132;2022-08-20T01:04:42;14.20;;;12.63;;
23060;SDS011;11698;47.690;9.132;2022-08-20T01:07:18;15.00;;;11.77;;
23060;SDS011;11698;47.690;9.132;2022-08-20T01:09:45;14.95;;;12.73;;
23060;SDS011;11698;47.690;9.132;2022-08-20T01:12:11;16.88;;;13.38;;
23060;SDS011;11698;47.690;9.132;2022-08-20T01:14:38;15.73;;;12.75;;
23060;SDS011;11698;47.690;9.132;2022-08-20T01:17:05;16.03;;;12.53;;
23060;SDS011;11698;47.690;9.132;2022-08-20T01:19:35;16.57;;;13.73;;
23060;SDS011;11698;47.690;9.132;2022-08-20T01:22:01;16.25;;;13.05;;
23060;SDS011;11698;47.690;9.132;2022-08-20T01:24:48;15.98;;;12.98;;
23060;SDS011;11698;47.690;9.132;2022-08-20T01:27:16;17.85;;;13.60;;
23060;SDS011;11698;47.690;9.132;2022-08-20T01:29:43;17.20;;;12.98;;
23060;SDS011;11698;47.690;9.132;2022-08-20T01:32:09;16.45;;;13.05;;
23060;SDS011;11698;47.690;9.132;2022-08-20T01:34:35;16.88;;;13.50;;
23060;SDS011;11698;47.690;9.132;2022-08-20T01:37:01;16.20;;;13.57;;
23060;SDS011;11698;47.690;9.132;2022-08-20T01:39:32;15.82;;;13.02;;
23060;SDS011;11698;47.690;9.132;2022-08-20T01:42:08;15.98;;;12.55;;
23060;SDS011;11698;47.690;9.132;2022-08-20T01:44:40;17.60;;;13.93;;
23060;SDS011;11698;47.690;9.132;2022-08-20T01:47:11;15.87;;;12.60;;
23060;SDS011;11698;47.690;9.132;2022-08-20T01:49:39;16.98;;;13.75;;
23060;SDS011;11698;47.690;9.132;2022-08-20T01:52:08;17.58;;;13.88;;
23060;SDS011;11698;47.690;9.132;2022-08-20T01:54:35;15.68;;;12.85;;
23060;SDS011;11698;47.690;9.132;2022-08-20T01:57:09;17.35;;;13.43;;
23060;SDS011;11698;47.690;9.132;2022-08-20T01:59:36;15.95;;;13.38;;
23060;SDS011;11698;47.690;9.132;2022-08-20T02:02:02;16.77;;;13.48;;
23060;SDS011;11698;47.690;9.132;2022-08-20T02:04:29;17.35;;;13.38;;
23060;SDS011;11698;47.690;9.132;2022-08-20T02:06:57;16.27;;;13.60;;
23060;SDS011;11698;47.690;9.132;2022-08-20T02:09:25;16.92;;;13.65;;
23060;SDS011;11698;47.690;9.132;2022-08-20T02:11:51;17.67;;;12.95;;
23060;SDS011;11698;47.690;9.132;2022-08-20T02:14:17;16.70;;;13.48;;
23060;SDS011;11698;47.690;9.132;2022-08-20T02:16:44;15.70;;;13.20;;
23060;SDS011;11698;47.690;9.132;2022-08-20T02:19:22;16.03;;;13.13;;
23060;SDS011;11698;47.690;9.132;2022-08-20T02:21:52;16.63;;;13.27;;
23060;SDS011;11698;47.690;9.132;2022-08-20T02:24:20;15.38;;;12.80;;
23060;SDS011;11698;47.690;9.132;2022-08-20T02:26:46;14.70;;;11.73;;
23060;SDS011;11698;47.690;9.132;2022-08-20T02:29:12;15.57;;;12.90;;
23060;SDS011;11698;47.690;9.132;2022-08-20T02:31:39;18.40;;;13.82;;
23060;SDS011;11698;47.690;9.132;2022-08-20T02:34:06;17.23;;;13.27;;
23060;SDS011;11698;47.690;9.132;2022-08-20T02:36:33;16.40;;;13.20;;
23060;SDS011;11698;47.690;9.132;2022-08-20T02:39:02;17.80;;;13.55;;
23060;SDS011;11698;47.690;9.132;2022-08-20T02:41:28;15.77;;;12.70;;
23060;SDS011;11698;47.690;9.132;2022-08-20T02:43:54;15.88;;;12.60;;
23060;SDS011;11698;47.690;9.132;2022-08-20T02:46:21;16.88;;;13.00;;
23060;SDS011;11698;47.690;9.132;2022-08-20T02:48:47;17.00;;;13.27;;
23060;SDS011;11698;47.690;9.132;2022-08-20T02:51:13;16.77;;;13.30;;
23060;SDS011;11698;47.690;9.132;2022-08-20T02:53:39;16.77;;;13.20;;
23060;SDS011;11698;47.690;9.132;2022-08-20T02:56:09;18.27;;;14.00;;
23060;SDS011;11698;47.690;9.132;2022-08-20T02:58:36;16.77;;;13.47;;
23060;SDS011;11698;47.690;9.132;2022-08-20T03:01:03;16.95;;;13.68;;
23060;SDS011;11698;47.690;9.132;2022-08-20T03:03:30;18.25;;;13.85;;
23060;SDS011;11698;47.690;9.132;2022-08-20T03:05:57;17.10;;;13.60;;
23060;SDS011;11698;47.690;9.132;2022-08-20T03:08:23;18.30;;;14.48;;
23060;SDS011;11698;47.690;9.132;2022-08-20T03:10:50;21.73;;;15.30;;
23060;SDS011;11698;47.690;9.132;2022-08-20T03:13:16;24.00;;;16.30;;
23060;SDS011;11698;47.690;9.132;2022-08-20T03:15:44;22.73;;;16.40;;
23060;SDS011;11698;47.690;9.132;2022-08-20T03:18:11;22.17;;;16.15;;
23060;SDS011;11698;47.690;9.132;2022-08-20T03:20:38;20.90;;;15.52;;
23060;SDS011;11698;47.690;9.132;2022-08-20T03:23:04;21.00;;;15.88;;
23060;SDS011;11698;47.690;9.132;2022-08-20T03:25:30;19.58;;;15.38;;
23060;SDS011;11698;47.690;9.132;2022-08-20T03:27:57;19.77;;;15.07;;
23060;SDS011;11698;47.690;9.132;2022-08-20T03:30:24;19.08;;;14.90;;
23060;SDS011;11698;47.690;9.132;2022-08-20T03:32:50;17.98;;;14.80;;
23060;SDS011;11698;47.690;9.132;2022-08-20T03:35:16;20.60;;;14.88;;
23060;SDS011;11698;47.690;9.132;2022-08-20T03:37:43;19.70;;;15.27;;
23060;SDS011;11698;47.690;9.132;2022-08-20T03:40:10;21.05;;;15.30;;
23060;SDS011;11698;47.690;9.132;2022-08-20T03:42:37;20.98;;;15.63;;
23060;SDS011;11698;47.690;9.132;2022-08-20T03:45:05;22.10;;;15.57;;
23060;SDS011;11698;47.690;9.132;2022-08-20T03:47:31;20.23;;;14.88;;
23060;SDS011;11698;47.690;9.132;2022-08-20T03:49:57;20.73;;;15.57;;
23060;SDS011;11698;47.690;9.132;2022-08-20T03:52:24;20.48;;;15.65;;
23060;SDS011;11698;47.690;9.132;2022-08-20T03:54:51;20.15;;;15.85;;
23060;SDS011;11698;47.690;9.132;2022-08-20T03:57:17;21.50;;;16.30;;
23060;SDS011;11698;47.690;9.132;2022-08-20T03:59:43;20.95;;;15.98;;
23060;SDS011;11698;47.690;9.132;2022-08-20T04:02:12;23.05;;;16.00;;
23060;SDS011;11698;47.690;9.132;2022-08-20T04:04:38;21.60;;;16.05;;
23060;SDS011;11698;47.690;9.132;2022-08-20T04:07:09;21.10;;;16.00;;
23060;SDS011;11698;47.690;9.132;2022-08-20T04:09:36;21.40;;;16.00;;
23060;SDS011;11698;47.690;9.132;2022-08-20T04:12:02;22.95;;;16.50;;
23060;SDS011;11698;47.690;9.132;2022-08-20T04:14:29;22.55;;;16.38;;
23060;SDS011;11698;47.690;9.132;2022-08-20T04:16:55;22.08;;;16.65;;
23060;SDS011;11698;47.690;9.132;2022-08-20T04:19:21;22.53;;;16.47;;
23060;SDS011;11698;47.690;9.132;2022-08-20T04:21:47;25.55;;;17.13;;
23060;SDS011;11698;47.690;9.132;2022-08-20T04:24:13;22.30;;;16.40;;
23060;SDS011;11698;47.690;9.132;2022-08-20T04:26:40;21.13;;;16.63;;
23060;SDS011;11698;47.690;9.132;2022-08-20T04:29:06;22.42;;;16.73;;
23060;SDS011;11698;47.690;9.132;2022-08-20T04:31:32;25.90;;;17.75;;
23060;SDS011;11698;47.690;9.132;2022-08-20T04:34:02;21.95;;;16.60;;
23060;SDS011;11698;47.690;9.132;2022-08-20T04:36:32;24.23;;;17.50;;
23060;SDS011;11698;47.690;9.132;2022-08-20T04:38:59;25.50;;;17.02;;
23060;SDS011;11698;47.690;9.132;2022-08-20T04:41:25;22.45;;;16.38;;
23060;SDS011;11698;47.690;9.132;2022-08-20T04:43:51;22.20;;;16.70;;
23060;SDS011;11698;47.690;9.132;2022-08-20T04:46:18;21.77;;;16.85;;
23060;SDS011;11698;47.690;9.132;2022-08-20T04:48:44;21.83;;;16.52;;
23060;SDS011;11698;47.690;9.132;2022-08-20T04:51:10;23.75;;;16.02;;
23060;SDS011;11698;47.690;9.132;2022-08-20T04:53:39;21.52;;;15.82;;
23060;SDS011;11698;47.690;9.132;2022-08-20T04:56:05;21.58;;;15.80;;
23060;SDS011;11698;47.690;9.132;2022-08-20T04:58:33;20.73;;;16.00;;
23060;SDS011;11698;47.690;9.132;2022-08-20T05:01:01;20.45;;;15.25;;
23060;SDS011;11698;47.690;9.132;2022-08-20T05:03:28;21.63;;;15.63;;
23060;SDS011;11698;47.690;9.132;2022-08-20T05:05:54;20.27;;;15.80;;
23060;SDS011;11698;47.690;9.132;2022-08-20T05:08:21;20.98;;;15.73;;
23060;SDS011;11698;47.690;9.132;2022-08-20T05:10:47;20.33;;;15.60;;
23060;SDS011;11698;47.690;9.132;2022-08-20T05:13:14;20.80;;;15.27;;
23060;SDS011;11698;47.690;9.132;2022-08-20T05:15:40;21.25;;;15.30;;
23060;SDS011;11698;47.690;9.132;2022-08-20T05:18:09;22.73;;;16.13;;
23060;SDS011;11698;47.690;9.132;2022-08-20T05:20:37;19.83;;;15.43;;
23060;SDS011;11698;47.690;9.132;2022-08-20T05:23:04;20.92;;;15.63;;
23060;SDS011;11698;47.690;9.132;2022-08-20T05:25:31;20.17;;;15.23;;
23060;SDS011;11698;47.690;9.132;2022-08-20T05:27:57;20.08;;;14.63;;
23060;SDS011;11698;47.690;9.132;2022-08-20T05:30:25;18.85;;;13.68;;
23060;SDS011;11698;47.690;9.132;2022-08-20T05:32:52;23.42;;;15.07;;
23060;SDS011;11698;47.690;9.132;2022-08-20T05:35:18;19.10;;;14.00;;
23060;SDS011;11698;47.690;9.132;2022-08-20T05:37:44;19.83;;;14.35;;
23060;SDS011;11698;47.690;9.132;2022-08-20T05:40:11;17.52;;;13.40;;
23060;SDS011;11698;47.690;9.132;2022-08-20T05:42:38;20.77;;;14.70;;
23060;SDS011;11698;47.690;9.132;2022-08-20T05:45:04;18.05;;;14.18;;
23060;SDS011;11698;47.690;9.132;2022-08-20T05:47:31;18.60;;;14.38;;
23060;SDS011;11698;47.690;9.132;2022-08-20T05:49:57;18.85;;;14.40;;
23060;SDS011;11698;47.690;9.132;2022-08-20T05:52:23;18.95;;;14.32;;
23060;SDS011;11698;47.690;9.132;2022-08-20T05:54:49;19.45;;;14.43;;
23060;SDS011;11698;47.690;9.132;2022-08-20T05:57:17;17.52;;;14.20;;
23060;SDS011;11698;47.690;9.132;2022-08-20T05:59:44;19.03;;;13.60;;
23060;SDS011;11698;47.690;9.132;2022-08-20T06:02:10;16.95;;;13.88;;
23060;SDS011;11698;47.690;9.132;2022-08-20T06:04:55;17.40;;;13.43;;
23060;SDS011;11698;47.690;9.132;2022-08-20T06:07:21;18.40;;;14.20;;
23060;SDS011;11698;47.690;9.132;2022-08-20T06:09:47;17.15;;;13.85;;
23060;SDS011;11698;47.690;9.132;2022-08-20T06:12:13;18.42;;;14.27;;
23060;SDS011;11698;47.690;9.132;2022-08-20T06:14:40;16.48;;;13.23;;
23060;SDS011;11698;47.690;9.132;2022-08-20T06:17:11;17.90;;;12.90;;
23060;SDS011;11698;47.690;9.132;2022-08-20T06:19:37;17.13;;;12.88;;
23060;SDS011;11698;47.690;9.132;2022-08-20T06:22:04;18.77;;;13.03;;
23060;SDS011;11698;47.690;9.132;2022-08-20T06:24:30;17.98;;;13.55;;
23060;SDS011;11698;47.690;9.132;2022-08-20T06:26:57;16.77;;;12.77;;
23060;SDS011;11698;47.690;9.132;2022-08-20T06:29:24;17.83;;;13.60;;
23060;SDS011;11698;47.690;9.132;2022-08-20T06:31:50;17.17;;;13.47;;
23060;SDS011;11698;47.690;9.132;2022-08-20T06:34:16;18.05;;;13.68;;
23060;SDS011;11698;47.690;9.132;2022-08-20T06:36:43;19.08;;;14.32;;
23060;SDS011;11698;47.690;9.132;2022-08-20T06:39:11;17.23;;;13.60;;
23060;SDS011;11698;47.690;9.132;2022-08-20T06:41:37;18.25;;;13.55;;
23060;SDS011;11698;47.690;9.132;2022-08-20T06:44:03;16.90;;;13.77;;
23060;SDS011;11698;47.690;9.132;2022-08-20T06:46:30;17.75;;;13.50;;
23060;SDS011;11698;47.690;9.132;2022-08-20T06:48:57;18.60;;;14.32;;
23060;SDS011;11698;47.690;9.132;2022-08-20T06:51:23;16.95;;;13.27;;
23060;SDS011;11698;47.690;9.132;2022-08-20T06:53:49;17.50;;;13.70;;
23060;SDS011;11698;47.690;9.132;2022-08-20T06:56:15;18.25;;;12.70;;
23060;SDS011;11698;47.690;9.132;2022-08-20T06:58:41;16.33;;;13.10;;
23060;SDS011;11698;47.690;9.132;2022-08-20T07:01:10;16.55;;;13.57;;
23060;SDS011;11698;47.690;9.132;2022-08-20T07:03:38;15.87;;;12.37;;
23060;SDS011;11698;47.690;9.132;2022-08-20T07:06:05;16.42;;;12.45;;
23060;SDS011;11698;47.690;9.132;2022-08-20T07:08:32;16.83;;;13.80;;
23060;SDS011;11698;47.690;9.132;2022-08-20T07:10:59;15.80;;;12.85;;
23060;SDS011;11698;47.690;9.132;2022-08-20T07:13:25;15.88;;;12.52;;
23060;SDS011;11698;47.690;9.132;2022-08-20T07:15:52;16.35;;;13.43;;
23060;SDS011;11698;47.690;9.132;2022-08-20T07:18:19;15.75;;;13.10;;
23060;SDS011;11698;47.690;9.132;2022-08-20T07:20:46;15.45;;;12.07;;
23060;SDS011;11698;47.690;9.132;2022-08-20T07:23:12;14.38;;;12.52;;
23060;SDS011;11698;47.690;9.132;2022-08-20T07:25:40;14.75;;;12.32;;
23060;SDS011;11698;47.690;9.132;2022-08-20T07:28:10;14.88;;;11.95;;
23060;SDS011;11698;47.690;9.132;2022-08-20T07:30:37;14.82;;;11.85;;
23060;SDS011;11698;47.690;9.132;2022-08-20T07:33:22;14.25;;;11.48;;
23060;SDS011;11698;47.690;9.132;2022-08-20T07:35:48;14.05;;;11.40;;
23060;SDS011;11698;47.690;9.132;2022-08-20T07:38:19;13.52;;;10.93;;
23060;SDS011;11698;47.690;9.132;2022-08-20T07:40:53;12.25;;;10.05;;
23060;SDS011;11698;47.690;9.132;2022-08-20T07:43:19;13.45;;;10.80;;
23060;SDS011;11698;47.690;9.132;2022-08-20T07:45:51;14.10;;;11.13;;
23060;SDS011;11698;47.690;9.132;2022-08-20T07:48:20;13.90;;;11.05;;
23060;SDS011;11698;47.690;9.132;2022-08-20T07:50:48;13.45;;;11.52;;
23060;SDS011;11698;47.690;9.132;2022-08-20T07:53:14;12.95;;;10.65;;
23060;SDS011;11698;47.690;9.132;2022-08-20T07:55:41;11.65;;;10.10;;
23060;SDS011;11698;47.690;9.132;2022-08-20T07:58:10;13.98;;;10.75;;
23060;SDS011;11698;47.690;9.132;2022-08-20T08:00:36;12.40;;;10.30;;
23060;SDS011;11698;47.690;9.132;2022-08-20T08:03:03;11.75;;;9.63;;
23060;SDS011;11698;47.690;9.132;2022-08-20T08:05:30;13.73;;;9.93;;
23060;SDS011;11698;47.690;9.132;2022-08-20T08:07:56;11.00;;;9.77;;
23060;SDS011;11698;47.690;9.132;2022-08-20T08:10:22;11.52;;;10.23;;
23060;SDS011;11698;47.690;9.132;2022-08-20T08:12:51;11.85;;;10.13;;
23060;SDS011;11698;47.690;9.132;2022-08-20T08:15:21;11.83;;;9.40;;
23060;SDS011;11698;47.690;9.132;2022-08-20T08:17:48;11.77;;;9.77;;
23060;SDS011;11698;47.690;9.132;2022-08-20T08:20:16;12.30;;;9.70;;
23060;SDS011;11698;47.690;9.132;2022-08-20T08:22:44;12.57;;;9.95;;
23060;SDS011;11698;47.690;9.132;2022-08-20T08:25:10;12.07;;;9.40;;
23060;SDS011;11698;47.690;9.132;2022-08-20T08:27:37;11.23;;;9.10;;
23060;SDS011;11698;47.690;9.132;2022-08-20T08:30:03;12.32;;;8.98;;
23060;SDS011;11698;47.690;9.132;2022-08-20T08:32:29;11.20;;;9.30;;
23060;SDS011;11698;47.690;9.132;2022-08-20T08:34:56;11.17;;;8.50;;
23060;SDS011;11698;47.690;9.132;2022-08-20T08:37:22;11.82;;;9.00;;
23060;SDS011;11698;47.690;9.132;2022-08-20T08:39:48;11.15;;;8.82;;
23060;SDS011;11698;47.690;9.132;2022-08-20T08:42:26;9.63;;;8.30;;
23060;SDS011;11698;47.690;9.132;2022-08-20T08:44:53;10.07;;;8.70;;
23060;SDS011;11698;47.690;9.132;2022-08-20T08:47:24;9.40;;;8.13;;
23060;SDS011;11698;47.690;9.132;2022-08-20T08:49:51;9.30;;;7.70;;
23060;SDS011;11698;47.690;9.132;2022-08-20T08:52:21;8.40;;;7.40;;
23060;SDS011;11698;47.690;9.132;2022-08-20T08:54:52;8.68;;;7.15;;
23060;SDS011;11698;47.690;9.132;2022-08-20T08:57:18;6.65;;;5.95;;
23060;SDS011;11698;47.690;9.132;2022-08-20T08:59:46;6.28;;;5.28;;
23060;SDS011;11698;47.690;9.132;2022-08-20T09:02:17;5.50;;;4.70;;
23060;SDS011;11698;47.690;9.132;2022-08-20T09:04:45;6.13;;;5.07;;
23060;SDS011;11698;47.690;9.132;2022-08-20T09:07:13;4.90;;;4.40;;
23060;SDS011;11698;47.690;9.132;2022-08-20T09:09:40;5.35;;;4.68;;
23060;SDS011;11698;47.690;9.132;2022-08-20T09:12:08;6.60;;;5.18;;
23060;SDS011;11698;47.690;9.132;2022-08-20T09:14:34;6.65;;;4.90;;
23060;SDS011;11698;47.690;9.132;2022-08-20T09:17:01;5.70;;;4.87;;
23060;SDS011;11698;47.690;9.132;2022-08-20T09:19:27;6.87;;;5.67;;
23060;SDS011;11698;47.690;9.132;2022-08-20T09:21:53;6.82;;;4.70;;
23060;SDS011;11698;47.690;9.132;2022-08-20T09:24:19;4.35;;;3.67;;
23060;SDS011;11698;47.690;9.132;2022-08-20T09:26:45;5.10;;;4.30;;
23060;SDS011;11698;47.690;9.132;2022-08-20T09:29:12;5.30;;;4.60;;
23060;SDS011;11698;47.690;9.132;2022-08-20T09:31:38;7.25;;;5.60;;
23060;SDS011;11698;47.690;9.132;2022-08-20T09:34:04;6.63;;;5.20;;
23060;SDS011;11698;47.690;9.132;2022-08-20T09:36:30;5.43;;;4.90;;
23060;SDS011;11698;47.690;9.132;2022-08-20T09:38:57;5.95;;;4.47;;
23060;SDS011;11698;47.690;9.132;2022-08-20T09:41:23;5.38;;;4.53;;
23060;SDS011;11698;47.690;9.132;2022-08-20T09:43:49;4.93;;;4.20;;
23060;SDS011;11698;47.690;9.132;2022-08-20T09:46:15;5.40;;;4.72;;
23060;SDS011;11698;47.690;9.132;2022-08-20T09:48:41;4.37;;;3.97;;
23060;SDS011;11698;47.690;9.132;2022-08-20T09:51:07;4.43;;;3.88;;
23060;SDS011;11698;47.690;9.132;2022-08-20T09:53:33;4.45;;;4.05;;
23060;SDS011;11698;47.690;9.132;2022-08-20T09:55:59;3.40;;;3.10;;
23060;SDS011;11698;47.690;9.132;2022-08-20T09:58:36;3.88;;;3.47;;
23060;SDS011;11698;47.690;9.132;2022-08-20T10:01:08;3.70;;;3.40;;
23060;SDS011;11698;47.690;9.132;2022-08-20T10:03:35;4.68;;;3.70;;
23060;SDS011;11698;47.690;9.132;2022-08-20T10:06:01;4.45;;;4.03;;
23060;SDS011;11698;47.690;9.132;2022-08-20T10:08:27;4.70;;;4.20;;
23060;SDS011;11698;47.690;9.132;2022-08-20T10:10:53;4.20;;;3.08;;
23060;SDS011;11698;47.690;9.132;2022-08-20T10:13:20;1.90;;;1.80;;
23060;SDS011;11698;47.690;9.132;2022-08-20T10:15:46;1.80;;;1.60;;
23060;SDS011;11698;47.690;9.132;2022-08-20T10:18:12;1.58;;;1.48;;
23060;SDS011;11698;47.690;9.132;2022-08-20T10:20:38;1.70;;;1.60;;
23060;SDS011;11698;47.690;9.132;2022-08-20T10:23:04;1.13;;;1.00;;
23060;SDS011;11698;47.690;9.132;2022-08-20T10:25:30;1.27;;;1.17;;
23060;SDS011;11698;47.690;9.132;2022-08-20T10:27:56;1.67;;;0.98;;
23060;SDS011;11698;47.690;9.132;2022-08-20T10:30:23;1.02;;;0.93;;
23060;SDS011;11698;47.690;9.132;2022-08-20T10:32:49;1.02;;;1.00;;
23060;SDS011;11698;47.690;9.132;2022-08-20T10:35:15;0.90;;;0.90;;
23060;SDS011;11698;47.690;9.132;2022-08-20T10:37:42;0.70;;;0.70;;
23060;SDS011;11698;47.690;9.132;2022-08-20T10:40:09;0.98;;;0.75;;
23060;SDS011;11698;47.690;9.132;2022-08-20T10:42:35;0.77;;;0.63;;
23060;SDS011;11698;47.690;9.132;2022-08-20T10:45:01;0.70;;;0.70;;
23060;SDS011;11698;47.690;9.132;2022-08-20T10:47:28;0.30;;;0.30;;
23060;SDS011;11698;47.690;9.132;2022-08-20T10:49:55;0.70;;;0.70;;
23060;SDS011;11698;47.690;9.132;2022-08-20T10:52:21;0.93;;;0.80;;
23060;SDS011;11698;47.690;9.132;2022-08-20T10:54:48;0.70;;;0.70;;
23060;SDS011;11698;47.690;9.132;2022-08-20T10:57:15;0.85;;;0.80;;
23060;SDS011;11698;47.690;9.132;2022-08-20T10:59:43;1.10;;;0.70;;
23060;SDS011;11698;47.690;9.132;2022-08-20T11:02:09;1.13;;;1.00;;
23060;SDS011;11698;47.690;9.132;2022-08-20T11:04:35;0.60;;;0.50;;
23060;SDS011;11698;47.690;9.132;2022-08-20T11:09:36;0.40;;;0.40;;
23060;SDS011;11698;47.690;9.132;2022-08-20T11:12:02;0.40;;;0.40;;
23060;SDS011;11698;47.690;9.132;2022-08-20T11:14:29;0.30;;;0.30;;
23060;SDS011;11698;47.690;9.132;2022-08-20T11:16:55;0.32;;;0.32;;
23060;SDS011;11698;47.690;9.132;2022-08-20T11:19:21;0.50;;;0.30;;
23060;SDS011;11698;47.690;9.132;2022-08-20T11:21:47;0.40;;;0.40;;
23060;SDS011;11698;47.690;9.132;2022-08-20T11:24:13;0.40;;;0.40;;
23060;SDS011;11698;47.690;9.132;2022-08-20T11:26:39;0.40;;;0.40;;
23060;SDS011;11698;47.690;9.132;2022-08-20T11:29:05;0.50;;;0.50;;
23060;SDS011;11698;47.690;9.132;2022-08-20T11:31:31;0.40;;;0.40;;
23060;SDS011;11698;47.690;9.132;2022-08-20T11:33:57;0.70;;;0.50;;
23060;SDS011;11698;47.690;9.132;2022-08-20T11:36:23;0.50;;;0.50;;
23060;SDS011;11698;47.690;9.132;2022-08-20T11:38:50;0.40;;;0.40;;
23060;SDS011;11698;47.690;9.132;2022-08-20T11:41:16;0.60;;;0.60;;
23060;SDS011;11698;47.690;9.132;2022-08-20T11:43:42;0.75;;;0.52;;
23060;SDS011;11698;47.690;9.132;2022-08-20T11:46:08;0.90;;;0.60;;
23060;SDS011;11698;47.690;9.132;2022-08-20T11:48:34;1.00;;;0.43;;
23060;SDS011;11698;47.690;9.132;2022-08-20T11:51:00;0.73;;;0.73;;
23060;SDS011;11698;47.690;9.132;2022-08-20T11:53:26;0.47;;;0.47;;
23060;SDS011;11698;47.690;9.132;2022-08-20T11:55:52;0.80;;;0.50;;
23060;SDS011;11698;47.690;9.132;2022-08-20T11:58:18;0.60;;;0.60;;
23060;SDS011;11698;47.690;9.132;2022-08-20T12:00:44;0.40;;;0.40;;
23060;SDS011;11698;47.690;9.132;2022-08-20T12:03:11;0.40;;;0.40;;
23060;SDS011;11698;47.690;9.132;2022-08-20T12:05:38;0.50;;;0.50;;
23060;SDS011;11698;47.690;9.132;2022-08-20T12:08:04;0.52;;;0.52;;
23060;SDS011;11698;47.690;9.132;2022-08-20T12:10:30;0.40;;;0.32;;
23060;SDS011;11698;47.690;9.132;2022-08-20T12:12:56;0.30;;;0.30;;
23060;SDS011;11698;47.690;9.132;2022-08-20T12:15:22;0.70;;;0.30;;
23060;SDS011;11698;47.690;9.132;2022-08-20T12:17:50;0.90;;;0.40;;
23060;SDS011;11698;47.690;9.132;2022-08-20T12:20:17;0.50;;;0.50;;
23060;SDS011;11698;47.690;9.132;2022-08-20T12:22:43;0.70;;;0.40;;
23060;SDS011;11698;47.690;9.132;2022-08-20T12:25:09;1.10;;;0.50;;
23060;SDS011;11698;47.690;9.132;2022-08-20T12:27:36;0.40;;;0.40;;
23060;SDS011;11698;47.690;9.132;2022-08-20T12:30:10;0.50;;;0.40;;
23060;SDS011;11698;47.690;9.132;2022-08-20T12:32:36;0.40;;;0.40;;
23060;SDS011;11698;47.690;9.132;2022-08-20T12:35:03;0.40;;;0.40;;
23060;SDS011;11698;47.690;9.132;2022-08-20T12:37:30;0.60;;;0.47;;
23060;SDS011;11698;47.690;9.132;2022-08-20T12:39:57;0.60;;;0.50;;
23060;SDS011;11698;47.690;9.132;2022-08-20T12:42:23;0.50;;;0.50;;
23060;SDS011;11698;47.690;9.132;2022-08-20T12:44:49;1.40;;;0.50;;
23060;SDS011;11698;47.690;9.132;2022-08-20T12:47:20;0.40;;;0.40;;
23060;SDS011;11698;47.690;9.132;2022-08-20T12:49:48;0.80;;;0.55;;
23060;SDS011;11698;47.690;9.132;2022-08-20T12:52:15;0.52;;;0.52;;
23060;SDS011;11698;47.690;9.132;2022-08-20T12:54:41;0.60;;;0.55;;
23060;SDS011;11698;47.690;9.132;2022-08-20T12:57:12;0.40;;;0.40;;
23060;SDS011;11698;47.690;9.132;2022-08-20T12:59:38;0.80;;;0.40;;
23060;SDS011;11698;47.690;9.132;2022-08-20T13:02:04;0.30;;;0.30;;
23060;SDS011;11698;47.690;9.132;2022-08-20T13:04:30;0.40;;;0.30;;
23060;SDS011;11698;47.690;9.132;2022-08-20T13:07:02;0.30;;;0.30;;
23060;SDS011;11698;47.690;9.132;2022-08-20T13:09:28;0.90;;;0.35;;
23060;SDS011;11698;47.690;9.132;2022-08-20T13:11:55;0.30;;;0.30;;
23060;SDS011;11698;47.690;9.132;2022-08-20T13:14:21;0.40;;;0.30;;
23060;SDS011;11698;47.690;9.132;2022-08-20T13:16:53;0.20;;;0.20;;
23060;SDS011;11698;47.690;9.132;2022-08-20T13:19:20;0.30;;;0.30;;
23060;SDS011;11698;47.690;9.132;2022-08-20T13:21:46;0.20;;;0.20;;
23060;SDS011;11698;47.690;9.132;2022-08-20T13:24:12;0.22;;;0.22;;
23060;SDS011;11698;47.690;9.132;2022-08-20T13:26:38;0.50;;;0.20;;
23060;SDS011;11698;47.690;9.132;2022-08-20T13:29:04;0.20;;;0.20;;
23060;SDS011;11698;47.690;9.132;2022-08-20T13:31:30;1.75;;;0.82;;
23060;SDS011;11698;47.690;9.132;2022-08-20T13:33:56;1.08;;;0.20;;
23060;SDS011;11698;47.690;9.132;2022-08-20T13:36:22;0.32;;;0.30;;
23060;SDS011;11698;47.690;9.132;2022-08-20T13:38:48;0.30;;;0.30;;
23060;SDS011;11698;47.690;9.132;2022-08-20T13:41:14;0.40;;;0.30;;
23060;SDS011;11698;47.690;9.132;2022-08-20T13:43:40;0.50;;;0.30;;
23060;SDS011;11698;47.690;9.132;2022-08-20T13:46:06;2.23;;;1.00;;
23060;SDS011;11698;47.690;9.132;2022-08-20T13:48:32;0.85;;;0.70;;
23060;SDS011;11698;47.690;9.132;2022-08-20T13:50:58;0.40;;;0.40;;
23060;SDS011;11698;47.690;9.132;2022-08-20T13:53:24;1.33;;;1.17;;
23060;SDS011;11698;47.690;9.132;2022-08-20T13:55:50;0.60;;;0.50;;
23060;SDS011;11698;47.690;9.132;2022-08-20T13:58:16;0.60;;;0.50;;
23060;SDS011;11698;47.690;9.132;2022-08-20T14:00:43;0.40;;;0.32;;
23060;SDS011;11698;47.690;9.132;2022-08-20T14:03:10;1.02;;;0.68;;
23060;SDS011;11698;47.690;9.132;2022-08-20T14:05:36;1.63;;;0.45;;
23060;SDS011;11698;47.690;9.132;2022-08-20T14:08:04;0.75;;;0.40;;
23060;SDS011;11698;47.690;9.132;2022-08-20T14:10:30;0.43;;;0.40;;
23060;SDS011;11698;47.690;9.132;2022-08-20T14:12:57;1.13;;;0.65;;
23060;SDS011;11698;47.690;9.132;2022-08-20T14:15:24;0.57;;;0.55;;
23060;SDS011;11698;47.690;9.132;2022-08-20T14:17:53;1.20;;;0.70;;
23060;SDS011;11698;47.690;9.132;2022-08-20T14:20:21;0.90;;;0.57;;
23060;SDS011;11698;47.690;9.132;2022-08-20T14:22:47;1.03;;;0.63;;
23060;SDS011;11698;47.690;9.132;2022-08-20T14:25:14;2.00;;;0.70;;
23060;SDS011;11698;47.690;9.132;2022-08-20T14:27:40;0.73;;;0.57;;
23060;SDS011;11698;47.690;9.132;2022-08-20T14:30:09;0.90;;;0.60;;
23060;SDS011;11698;47.690;9.132;2022-08-20T14:32:36;1.85;;;0.40;;
23060;SDS011;11698;47.690;9.132;2022-08-20T14:35:02;2.75;;;0.52;;